Time;durP1;ratioP1;P1;durP2;ratioP2;P2;SDS_P1;SDS_P2;PMS_P1;PMS_P2;Temp;Humidity;BMP_temperature;BMP_pressure;BME280_temperature;BME280_humidity;BME280_pressure;Samples;Min_cycle;Max_cycle;Signal;HPM_P1;HPM_P2
2024/01/11 00:00:47;;;;;;;20.40;14.00;;;-2.50;99.90;;;;;;5073313;28;20175;-62
2024/01/11 00:03:12;;;;;;;24.93;14.20;;;-2.50;99.90;;;;;;5073296;28;20624;-62
2024/01/11 00:05:38;;;;;;;21.17;13.10;;;-2.50;99.90;;;;;;5073321;28;20179;-62
2024/01/11 00:08:04;;;;;;;21.73;14.10;;;-2.50;99.90;;;;;;5073267;28;20236;-61
2024/01/11 00:10:30;;;;;;;19.27;12.50;;;-2.50;99.90;;;;;;5073236;28;20660;-62
2024/01/11 00:12:55;;;;;;;19.60;13.30;;;-2.50;99.90;;;;;;5073237;28;20202;-61
2024/01/11 00:15:21;;;;;;;19.13;12.70;;;-2.50;99.90;;;;;;5073378;28;20254;-61
2024/01/11 00:17:47;;;;;;;21.07;14.03;;;-2.50;99.90;;;;;;5072848;28;20202;-62
2024/01/11 00:20:12;;;;;;;20.53;13.13;;;-2.60;99.90;;;;;;5073139;28;20179;-62
2024/01/11 00:22:38;;;;;;;18.80;12.37;;;-2.60;99.90;;;;;;5073094;28;20179;-62
2024/01/11 00:25:04;;;;;;;24.17;13.60;;;-2.60;99.90;;;;;;5073188;28;20248;-62
2024/01/11 00:27:30;;;;;;;21.37;13.10;;;-2.60;99.90;;;;;;5073044;28;20183;-62
2024/01/11 00:29:56;;;;;;;20.90;13.67;;;-2.60;99.90;;;;;;5072782;28;20175;-62
2024/01/11 00:32:21;;;;;;;18.73;12.70;;;-2.60;99.90;;;;;;5073219;28;20572;-61
2024/01/11 00:34:47;;;;;;;19.97;12.60;;;-2.60;99.90;;;;;;5073238;28;20182;-62
2024/01/11 00:37:13;;;;;;;20.07;12.20;;;-2.60;99.90;;;;;;5072994;28;20179;-61
2024/01/11 00:39:39;;;;;;;23.00;14.13;;;-2.60;99.90;;;;;;5072973;28;20182;-62
2024/01/11 00:42:04;;;;;;;22.37;13.30;;;-2.50;99.90;;;;;;5072628;28;20179;-61
2024/01/11 00:44:30;;;;;;;19.30;12.87;;;-2.60;99.90;;;;;;5076072;28;20236;-61
2024/01/11 00:46:56;;;;;;;21.90;12.53;;;-2.70;99.90;;;;;;5076434;28;20197;-62
2024/01/11 00:49:22;;;;;;;18.30;12.70;;;-2.70;99.90;;;;;;5076618;28;20509;-62
2024/01/11 00:51:47;;;;;;;20.90;13.37;;;-2.70;99.90;;;;;;5076787;28;20218;-62
2024/01/11 00:54:13;;;;;;;21.67;12.93;;;-2.60;99.90;;;;;;5076675;28;20520;-62
2024/01/11 00:56:38;;;;;;;19.83;13.10;;;-2.70;99.90;;;;;;5076666;28;20576;-62
2024/01/11 00:59:04;;;;;;;22.50;12.57;;;-2.70;99.90;;;;;;5076364;28;20187;-61
2024/01/11 01:01:30;;;;;;;21.43;12.53;;;-2.70;99.90;;;;;;5076666;28;20210;-61
2024/01/11 01:03:56;;;;;;;21.03;12.70;;;-2.80;99.90;;;;;;5076387;28;20620;-61
2024/01/11 01:06:22;;;;;;;19.97;13.87;;;-2.80;99.90;;;;;;5076346;28;20183;-62
2024/01/11 01:08:47;;;;;;;21.07;12.93;;;-2.80;99.90;;;;;;5076322;28;20401;-63
2024/01/11 01:11:13;;;;;;;21.33;12.57;;;-2.80;99.90;;;;;;5058170;28;20198;-62
2024/01/11 01:13:39;;;;;;;23.07;13.90;;;-2.70;99.90;;;;;;5076276;28;20544;-63
2024/01/11 01:16:05;;;;;;;20.53;13.13;;;-2.80;99.90;;;;;;5076173;28;20639;-61
2024/01/11 01:18:30;;;;;;;20.07;13.77;;;-2.70;99.90;;;;;;5076121;28;20179;-62
2024/01/11 01:20:56;;;;;;;21.97;14.07;;;-2.80;99.90;;;;;;5076081;28;20186;-62
2024/01/11 01:23:21;;;;;;;20.60;12.87;;;-2.70;99.90;;;;;;5075809;28;20202;-62
2024/01/11 01:25:48;;;;;;;21.20;14.27;;;-2.70;99.90;;;;;;5076080;28;20181;-62
2024/01/11 01:28:14;;;;;;;21.97;12.90;;;-2.70;99.90;;;;;;5075689;28;20199;-63
2024/01/11 01:30:39;;;;;;;22.37;13.77;;;-2.70;99.90;;;;;;5075754;28;20702;-62
2024/01/11 01:33:05;;;;;;;24.47;13.70;;;-2.70;99.90;;;;;;5075743;28;20237;-61
2024/01/11 01:35:30;;;;;;;21.30;13.80;;;-2.70;99.90;;;;;;5075763;28;20179;-61
2024/01/11 01:37:56;;;;;;;21.47;14.00;;;-2.70;99.90;;;;;;5075749;28;20258;-62
2024/01/11 01:40:22;;;;;;;21.60;13.43;;;-2.70;99.90;;;;;;5075463;28;20176;-62
2024/01/11 01:42:48;;;;;;;21.67;14.37;;;-2.70;99.90;;;;;;5075709;28;20501;-62
2024/01/11 01:45:16;;;;;;;18.97;12.90;;;-2.80;99.90;;;;;;5075621;28;20210;-64
2024/01/11 01:47:43;;;;;;;23.90;14.40;;;-2.80;99.90;;;;;;5075627;28;20179;-63
2024/01/11 01:50:10;;;;;;;20.40;13.07;;;-2.80;99.90;;;;;;5075286;28;20179;-61
2024/01/11 01:52:38;;;;;;;21.17;14.27;;;-2.70;99.90;;;;;;5075419;28;20276;-61
2024/01/11 01:55:06;;;;;;;22.57;14.87;;;-2.70;99.90;;;;;;5074459;28;20167;-62
2024/01/11 01:57:34;;;;;;;24.10;15.53;;;-2.80;99.90;;;;;;5075387;28;20175;-61
2024/01/11 02:00:00;;;;;;;21.23;14.07;;;-2.80;99.90;;;;;;5075334;28;20232;-63
2024/01/11 02:02:27;;;;;;;19.80;14.13;;;-2.80;99.90;;;;;;5075246;28;20190;-63
2024/01/11 02:04:53;;;;;;;19.80;13.10;;;-2.80;99.90;;;;;;5075000;28;20171;-63
2024/01/11 02:07:19;;;;;;;21.23;13.60;;;-2.80;99.90;;;;;;5075223;28;20175;-64
2024/01/11 02:09:45;;;;;;;26.07;15.63;;;-2.80;99.90;;;;;;5075165;28;20616;-63
2024/01/11 02:12:10;;;;;;;33.00;18.60;;;-2.70;99.90;;;;;;5075079;28;20203;-64
2024/01/11 02:14:40;;;;;;;33.47;18.50;;;-2.90;99.90;;;;;;5075025;28;20215;-64
2024/01/11 02:17:06;;;;;;;28.30;18.03;;;-2.80;99.90;;;;;;5074969;28;20540;-63
2024/01/11 02:19:33;;;;;;;23.80;15.10;;;-2.80;99.90;;;;;;5074694;28;20171;-63
2024/01/11 02:22:05;;;;;;;23.57;14.50;;;-2.80;99.90;;;;;;5074852;28;20183;-64
2024/01/11 02:24:31;;;;;;;21.23;13.73;;;-2.80;99.90;;;;;;5074512;28;20273;-64
2024/01/11 02:27:01;;;;;;;21.10;13.93;;;-2.80;99.90;;;;;;5074800;28;20247;-64
2024/01/11 02:29:28;;;;;;;20.93;13.80;;;-2.80;99.90;;;;;;5074465;28;20663;-64
2024/01/11 02:31:55;;;;;;;22.77;14.80;;;-2.80;99.90;;;;;;5074566;28;20261;-63
2024/01/11 02:34:22;;;;;;;24.30;14.93;;;-2.80;99.90;;;;;;5074372;28;20182;-63
2024/01/11 02:36:48;;;;;;;21.43;13.80;;;-2.90;99.90;;;;;;5074613;28;20175;-63
2024/01/11 02:39:16;;;;;;;20.63;13.67;;;-2.80;99.90;;;;;;5074503;28;20613;-63
2024/01/11 02:41:43;;;;;;;24.87;14.47;;;-2.80;99.90;;;;;;5074453;28;20257;-63
2024/01/11 02:44:09;;;;;;;20.63;14.30;;;-2.90;99.90;;;;;;5074147;28;20178;-63
2024/01/11 02:46:34;;;;;;;22.67;14.83;;;-2.90;99.90;;;;;;5074551;28;20175;-63
2024/01/11 02:49:00;;;;;;;21.97;14.63;;;-2.90;99.90;;;;;;5074379;28;20617;-63
2024/01/11 02:51:26;;;;;;;23.27;14.97;;;-2.90;99.90;;;;;;5074005;28;20631;-64
2024/01/11 02:53:51;;;;;;;24.17;14.13;;;-3.00;99.90;;;;;;5074305;28;20191;-63
2024/01/11 02:56:17;;;;;;;21.77;14.77;;;-3.00;99.90;;;;;;5074283;28;20175;-63
2024/01/11 02:58:42;;;;;;;23.53;14.40;;;-3.00;99.90;;;;;;5073887;28;20257;-63
2024/01/11 03:01:08;;;;;;;23.77;15.40;;;-3.10;99.90;;;;;;5074206;28;20254;-63
2024/01/11 03:03:34;;;;;;;24.80;15.20;;;-3.00;99.90;;;;;;5073813;28;20262;-63
2024/01/11 03:05:59;;;;;;;21.67;14.33;;;-3.10;99.90;;;;;;5074015;28;20179;-64
2024/01/11 03:08:26;;;;;;;22.73;14.37;;;-3.20;99.90;;;;;;5074031;28;20609;-63
2024/01/11 03:10:52;;;;;;;23.60;15.40;;;-3.20;99.90;;;;;;5073711;28;20710;-64
2024/01/11 03:13:17;;;;;;;24.67;14.97;;;-3.10;99.90;;;;;;5073856;28;20203;-63
2024/01/11 03:15:43;;;;;;;23.47;15.07;;;-3.10;99.90;;;;;;5073671;28;20197;-63
2024/01/11 03:18:09;;;;;;;25.50;14.97;;;-3.10;99.90;;;;;;5073884;28;20678;-63
2024/01/11 03:20:35;;;;;;;24.37;15.13;;;-3.30;99.90;;;;;;5073585;28;20229;-63
2024/01/11 03:23:00;;;;;;;25.63;15.83;;;-3.20;99.90;;;;;;5073775;28;20179;-63
2024/01/11 03:25:26;;;;;;;27.37;14.83;;;-3.30;99.90;;;;;;5073303;28;20635;-63
2024/01/11 03:27:52;;;;;;;27.33;15.33;;;-3.20;99.90;;;;;;5073707;28;20199;-62
2024/01/11 03:30:18;;;;;;;28.60;16.60;;;-3.20;99.90;;;;;;5073711;28;20671;-62
2024/01/11 03:32:43;;;;;;;23.73;15.23;;;-3.10;99.90;;;;;;5073477;28;20301;-63
2024/01/11 03:35:09;;;;;;;21.20;14.77;;;-3.00;99.90;;;;;;5073582;28;20175;-63
2024/01/11 03:37:35;;;;;;;23.13;13.67;;;-3.00;99.90;;;;;;5073568;28;20186;-63
2024/01/11 03:40:03;;;;;;;27.50;15.43;;;-3.00;99.90;;;;;;5073271;28;20193;-63
2024/01/11 03:42:29;;;;;;;25.97;15.73;;;-3.00;99.90;;;;;;5073528;28;20269;-62
2024/01/11 03:44:55;;;;;;;22.10;14.83;;;-3.00;99.90;;;;;;5073519;28;20565;-63
2024/01/11 03:47:20;;;;;;;24.33;15.23;;;-3.00;99.90;;;;;;5073535;28;20266;-62
2024/01/11 03:49:46;;;;;;;25.40;14.53;;;-3.00;99.90;;;;;;5073404;28;20209;-63
2024/01/11 03:52:11;;;;;;;23.03;15.00;;;-3.00;99.90;;;;;;5073377;28;20203;-63
2024/01/11 03:54:37;;;;;;;21.20;14.30;;;-2.90;99.90;;;;;;5073417;28;20171;-63
2024/01/11 03:57:03;;;;;;;26.33;16.07;;;-3.00;99.90;;;;;;5073112;28;20255;-63
2024/01/11 03:59:29;;;;;;;26.17;14.80;;;-2.90;99.90;;;;;;5073314;28;20206;-62
2024/01/11 04:01:55;;;;;;;26.90;15.40;;;-3.00;99.90;;;;;;5073324;28;20236;-62
2024/01/11 04:04:22;;;;;;;24.20;14.80;;;-3.00;99.90;;;;;;5073246;28;20627;-63
2024/01/11 04:06:48;;;;;;;25.50;15.30;;;-3.00;99.90;;;;;;5073261;28;20183;-63
2024/01/11 04:09:13;;;;;;;26.30;15.43;;;-3.00;99.90;;;;;;5073277;28;20206;-63
2024/01/11 04:11:39;;;;;;;25.87;15.37;;;-3.10;99.90;;;;;;5073172;28;20242;-63
2024/01/11 04:14:05;;;;;;;24.37;15.27;;;-3.00;99.90;;;;;;5073242;28;20579;-62
2024/01/11 04:16:30;;;;;;;24.10;15.23;;;-3.10;99.90;;;;;;5073211;28;20176;-63
2024/01/11 04:18:56;;;;;;;26.07;15.33;;;-3.00;99.90;;;;;;5075498;28;20209;-63
2024/01/11 04:21:29;;;;;;;24.23;15.27;;;-3.10;99.90;;;;;;5077242;28;20190;-63
2024/01/11 04:23:55;;;;;;;22.67;14.93;;;-3.20;99.90;;;;;;5077043;28;20231;-62
2024/01/11 04:26:21;;;;;;;22.03;14.23;;;-3.20;99.90;;;;;;5077122;28;20269;-62
2024/01/11 04:28:47;;;;;;;24.63;14.87;;;-3.20;99.90;;;;;;5058864;28;20260;-63
2024/01/11 04:31:14;;;;;;;22.00;14.37;;;-3.20;99.90;;;;;;5077072;28;20171;-63
2024/01/11 04:33:46;;;;;;;26.67;15.47;;;-3.30;99.90;;;;;;5076540;28;20618;-63
2024/01/11 04:36:12;;;;;;;22.77;15.13;;;-3.20;99.90;;;;;;5076584;28;20179;-63
2024/01/11 04:38:39;;;;;;;24.90;15.80;;;-3.30;99.90;;;;;;5076897;28;20202;-63
2024/01/11 04:41:13;;;;;;;24.77;14.43;;;-3.20;99.90;;;;;;5076808;28;20577;-62
2024/01/11 04:43:40;;;;;;;25.17;15.50;;;-3.30;99.90;;;;;;5076818;28;20181;-63
2024/01/11 04:46:17;;;;;;;21.27;14.80;;;-3.30;99.90;;;;;;5076708;28;20649;-63
2024/01/11 04:48:43;;;;;;;25.27;15.97;;;-3.20;99.90;;;;;;5076924;28;20232;-63
2024/01/11 04:51:09;;;;;;;25.37;15.23;;;-3.30;99.90;;;;;;5076571;28;20179;-63
2024/01/11 04:53:39;;;;;;;22.20;15.30;;;-3.30;99.90;;;;;;5076507;28;20668;-63
2024/01/11 04:56:06;;;;;;;24.73;14.30;;;-3.40;99.90;;;;;;5076583;28;20202;-62
2024/01/11 04:58:32;;;;;;;28.90;16.00;;;-3.30;99.90;;;;;;5076551;28;20170;-63
2024/01/11 05:00:57;;;;;;;25.53;15.67;;;-3.30;99.90;;;;;;5076778;28;20171;-63
2024/01/11 05:03:23;;;;;;;26.77;15.90;;;-3.40;99.90;;;;;;5076433;28;20175;-63
2024/01/11 05:05:49;;;;;;;26.13;14.83;;;-3.30;99.90;;;;;;5058167;28;20182;-63
2024/01/11 05:08:14;;;;;;;26.70;16.67;;;-3.10;99.90;;;;;;5076244;28;20182;-63
2024/01/11 05:10:40;;;;;;;24.87;16.47;;;-3.20;99.90;;;;;;5076260;28;20179;-63
2024/01/11 05:13:06;;;;;;;24.33;16.10;;;-3.20;99.90;;;;;;5076086;28;20222;-62
2024/01/11 05:15:31;;;;;;;28.47;17.43;;;-3.20;99.90;;;;;;5076318;28;20210;-63
2024/01/11 05:17:58;;;;;;;29.17;18.53;;;-3.20;99.90;;;;;;5076180;28;20211;-63
2024/01/11 05:20:24;;;;;;;26.43;16.40;;;-3.20;99.90;;;;;;5076101;28;20329;-63
2024/01/11 05:22:50;;;;;;;25.73;15.90;;;-3.30;99.90;;;;;;5076118;28;20203;-63
2024/01/11 05:25:15;;;;;;;28.67;17.17;;;-3.20;99.90;;;;;;5075678;28;20629;-63
2024/01/11 05:27:41;;;;;;;24.87;16.00;;;-3.20;99.90;;;;;;5075976;28;20172;-62
2024/01/11 05:30:07;;;;;;;25.57;15.17;;;-3.30;99.90;;;;;;5076171;28;20175;-63
2024/01/11 05:32:33;;;;;;;26.37;15.93;;;-3.30;99.90;;;;;;5075764;28;20292;-63
2024/01/11 05:34:58;;;;;;;26.57;16.03;;;-3.40;99.90;;;;;;5075909;28;20183;-63
2024/01/11 05:37:24;;;;;;;26.13;16.40;;;-3.40;99.90;;;;;;5075825;28;20233;-63
2024/01/11 05:39:50;;;;;;;24.77;15.80;;;-3.30;99.90;;;;;;5075491;28;20599;-63
2024/01/11 05:42:15;;;;;;;30.17;19.97;;;-3.30;99.90;;;;;;5075711;28;20701;-63
2024/01/11 05:44:41;;;;;;;29.90;18.90;;;-3.30;99.90;;;;;;5075725;28;20532;-63
2024/01/11 05:47:07;;;;;;;25.17;16.37;;;-3.20;99.90;;;;;;5078959;28;20641;-63
2024/01/11 05:49:32;;;;;;;24.00;16.60;;;-3.30;99.90;;;;;;5095798;28;20253;-63
2024/01/11 05:51:58;;;;;;;25.53;16.67;;;-3.30;99.90;;;;;;5095474;28;20289;-63
2024/01/11 05:54:24;;;;;;;26.00;15.23;;;-3.30;99.90;;;;;;5095794;28;20548;-63
2024/01/11 05:56:52;;;;;;;25.87;15.50;;;-3.30;99.90;;;;;;5095642;28;20570;-63
2024/01/11 05:59:18;;;;;;;24.83;15.83;;;-3.40;99.90;;;;;;5095509;28;20181;-62
2024/01/11 06:01:44;;;;;;;25.33;16.53;;;-3.40;99.90;;;;;;5095282;28;20186;-62
2024/01/11 06:04:09;;;;;;;25.43;15.87;;;-3.30;99.90;;;;;;5095842;28;20181;-61
2024/01/11 06:06:35;;;;;;;24.97;15.37;;;-3.30;99.90;;;;;;5095446;28;20652;-61
2024/01/11 06:09:04;;;;;;;24.60;15.43;;;-3.30;99.90;;;;;;5095449;28;20181;-61
2024/01/11 06:11:30;;;;;;;26.67;16.20;;;-3.40;99.90;;;;;;5095125;28;20620;-59
2024/01/11 06:13:55;;;;;;;27.33;15.83;;;-3.40;99.90;;;;;;5095355;28;20181;-61
2024/01/11 06:16:21;;;;;;;24.57;15.13;;;-3.40;99.90;;;;;;5095428;28;20174;-60
2024/01/11 06:18:47;;;;;;;23.80;15.23;;;-3.50;99.90;;;;;;5095454;28;20561;-59
2024/01/11 06:21:12;;;;;;;25.30;16.00;;;-3.40;99.90;;;;;;5095194;28;20178;-59
2024/01/11 06:23:38;;;;;;;27.53;15.60;;;-3.40;99.90;;;;;;5094926;28;20229;-59
2024/01/11 06:26:04;;;;;;;25.33;15.23;;;-3.40;99.90;;;;;;5095413;28;20178;-59
2024/01/11 06:28:29;;;;;;;24.67;15.23;;;-3.40;99.90;;;;;;5094984;28;20185;-59
2024/01/11 06:30:55;;;;;;;22.33;15.53;;;-3.40;99.90;;;;;;5095046;28;20178;-59
2024/01/11 06:33:21;;;;;;;23.93;15.83;;;-3.50;99.90;;;;;;5094878;28;20237;-59
2024/01/11 06:35:47;;;;;;;24.83;15.63;;;-3.50;99.90;;;;;;5094862;28;20601;-59
2024/01/11 06:38:12;;;;;;;24.60;14.73;;;-3.50;99.90;;;;;;5094882;28;20174;-62
2024/01/11 06:40:38;;;;;;;24.30;15.70;;;-3.50;99.90;;;;;;5094342;28;20257;-62
2024/01/11 06:43:03;;;;;;;26.00;16.47;;;-3.50;99.90;;;;;;5094627;28;20513;-62
2024/01/11 06:45:29;;;;;;;24.17;15.73;;;-3.50;99.90;;;;;;5095029;28;20620;-59
2024/01/11 06:47:55;;;;;;;27.87;16.27;;;-3.60;99.90;;;;;;5094296;28;20177;-61
2024/01/11 06:50:20;;;;;;;25.13;16.03;;;-3.60;99.90;;;;;;5088107;28;20181;-61
2024/01/11 06:52:46;;;;;;;25.07;14.93;;;-3.70;99.90;;;;;;5083203;28;20277;-61
2024/01/11 06:55:12;;;;;;;23.67;15.23;;;-3.60;99.90;;;;;;5083536;28;20171;-61
2024/01/11 06:57:38;;;;;;;24.23;15.77;;;-3.50;99.90;;;;;;5083714;28;20171;-62
2024/01/11 07:00:04;;;;;;;22.93;15.27;;;-3.60;99.90;;;;;;5084883;28;20193;-61
2024/01/11 07:02:29;;;;;;;23.60;15.23;;;-3.60;99.90;;;;;;5082942;28;20178;-60
2024/01/11 07:04:55;;;;;;;29.60;16.70;;;-3.70;99.90;;;;;;5090266;28;20720;-60
2024/01/11 07:07:21;;;;;;;27.17;16.47;;;-3.70;99.90;;;;;;5093900;28;20174;-61
2024/01/11 07:09:46;;;;;;;28.13;16.70;;;-3.70;99.90;;;;;;5094115;28;20183;-60
2024/01/11 07:12:12;;;;;;;27.50;16.47;;;-3.70;99.90;;;;;;5094169;28;20194;-61
2024/01/11 07:14:37;;;;;;;25.70;15.50;;;-3.80;99.90;;;;;;5093995;28;20523;-60
2024/01/11 07:17:03;;;;;;;29.63;15.80;;;-3.80;99.90;;;;;;5094125;28;20171;-61
2024/01/11 07:19:29;;;;;;;25.10;15.63;;;-3.80;99.90;;;;;;5093984;28;20171;-60
2024/01/11 07:21:55;;;;;;;27.73;15.60;;;-3.80;99.90;;;;;;5094060;28;20186;-61
2024/01/11 07:24:21;;;;;;;26.70;17.00;;;-3.80;99.90;;;;;;5093922;28;20279;-60
2024/01/11 07:26:47;;;;;;;26.90;16.40;;;-3.80;99.90;;;;;;5093685;28;20261;-61
2024/01/11 07:29:14;;;;;;;25.50;16.57;;;-3.90;99.90;;;;;;5093792;28;20178;-61
2024/01/11 07:31:40;;;;;;;25.70;15.53;;;-3.80;99.90;;;;;;5093161;28;20235;-62
2024/01/11 07:34:05;;;;;;;27.20;16.97;;;-3.70;99.90;;;;;;5092994;28;20261;-61
2024/01/11 07:36:31;;;;;;;30.97;15.97;;;-3.90;99.90;;;;;;5093345;28;20560;-62
2024/01/11 07:38:57;;;;;;;27.23;15.90;;;-3.90;99.90;;;;;;5094085;28;20549;-62
2024/01/11 07:41:22;;;;;;;32.63;17.43;;;-4.00;99.90;;;;;;5093814;28;20171;-62
2024/01/11 07:43:48;;;;;;;24.63;15.67;;;-3.90;99.90;;;;;;5093378;28;20186;-62
2024/01/11 07:46:14;;;;;;;27.43;17.03;;;-3.90;99.90;;;;;;5093391;28;20166;-62
2024/01/11 07:48:40;;;;;;;25.87;16.20;;;-3.80;99.90;;;;;;5093590;28;20687;-61
2024/01/11 07:51:05;;;;;;;24.07;15.80;;;-3.90;99.90;;;;;;5093199;28;20174;-61
2024/01/11 07:53:31;;;;;;;27.03;16.17;;;-3.90;99.90;;;;;;5090929;28;20228;-61
2024/01/11 07:55:58;;;;;;;24.90;15.80;;;-3.90;99.90;;;;;;5091589;28;20178;-61
2024/01/11 07:58:23;;;;;;;24.97;15.87;;;-3.90;99.90;;;;;;5091499;28;20182;-62
2024/01/11 08:00:49;;;;;;;26.27;16.33;;;-3.90;99.90;;;;;;5093370;28;20174;-60
2024/01/11 08:03:15;;;;;;;24.37;15.20;;;-4.00;99.90;;;;;;5093419;28;20227;-61
2024/01/11 08:05:43;;;;;;;25.00;16.43;;;-4.00;99.90;;;;;;5093494;28;20181;-60
2024/01/11 08:08:08;;;;;;;26.80;16.00;;;-3.90;99.90;;;;;;5093403;28;20619;-61
2024/01/11 08:10:34;;;;;;;25.17;15.50;;;-3.90;99.90;;;;;;5093481;28;20171;-61
2024/01/11 08:13:00;;;;;;;25.77;15.97;;;-3.90;99.90;;;;;;5093365;28;20244;-61
2024/01/11 08:15:26;;;;;;;29.40;17.83;;;-4.00;99.90;;;;;;5093444;28;20284;-62
2024/01/11 08:17:52;;;;;;;23.73;15.40;;;-3.90;99.90;;;;;;5093425;28;20622;-61
2024/01/11 08:20:19;;;;;;;25.97;15.37;;;-3.80;99.90;;;;;;5093119;28;20175;-61
2024/01/11 08:22:48;;;;;;;24.30;15.33;;;-3.80;99.90;;;;;;5093085;28;20649;-62
2024/01/11 08:25:14;;;;;;;28.97;15.40;;;-3.80;99.90;;;;;;5092988;28;20230;-62
2024/01/11 08:27:40;;;;;;;25.60;15.20;;;-3.70;99.90;;;;;;5093354;28;20492;-61
2024/01/11 08:30:08;;;;;;;27.27;16.30;;;-3.60;99.90;;;;;;5093242;28;20210;-61
2024/01/11 08:32:38;;;;;;;25.37;15.40;;;-3.50;99.90;;;;;;5093310;28;20666;-62
2024/01/11 08:35:06;;;;;;;24.70;15.47;;;-3.60;99.90;;;;;;5093305;28;20166;-60
2024/01/11 08:37:32;;;;;;;23.87;15.53;;;-3.50;99.90;;;;;;5093276;28;20186;-61
2024/01/11 08:39:57;;;;;;;27.97;15.90;;;-3.50;99.90;;;;;;5093120;28;20523;-62
2024/01/11 08:42:23;;;;;;;28.47;15.60;;;-3.50;99.90;;;;;;5093293;28;20185;-61
2024/01/11 08:44:49;;;;;;;26.23;16.27;;;-3.30;99.90;;;;;;5093482;28;20178;-61
2024/01/11 08:47:14;;;;;;;23.63;14.77;;;-3.30;99.90;;;;;;5093169;28;20597;-61
2024/01/11 08:49:40;;;;;;;25.73;16.07;;;-3.30;99.90;;;;;;5093111;28;20198;-60
2024/01/11 08:52:07;;;;;;;22.80;15.80;;;-3.30;99.90;;;;;;5093117;28;20218;-62
2024/01/11 08:54:34;;;;;;;25.33;16.60;;;-3.20;99.90;;;;;;5092248;28;20220;-62
2024/01/11 08:56:59;;;;;;;26.00;16.20;;;-3.20;99.90;;;;;;5092602;28;20254;-62
2024/01/11 08:59:25;;;;;;;26.93;16.23;;;-3.10;99.90;;;;;;5092733;28;20258;-61
2024/01/11 09:01:52;;;;;;;27.90;16.00;;;-3.10;99.90;;;;;;5093235;28;20236;-62
2024/01/11 09:04:18;;;;;;;28.13;16.50;;;-3.00;99.90;;;;;;5094139;28;20174;-61
2024/01/11 09:06:44;;;;;;;26.97;18.03;;;-3.00;99.90;;;;;;5096713;28;20254;-62
2024/01/11 09:09:13;;;;;;;27.57;16.73;;;-2.90;99.90;;;;;;5096661;28;20190;-61
2024/01/11 09:11:39;;;;;;;27.97;17.87;;;-2.80;99.90;;;;;;5096523;28;20177;-62
2024/01/11 09:14:06;;;;;;;28.27;18.30;;;-2.80;99.90;;;;;;5096580;28;20194;-62
2024/01/11 09:16:32;;;;;;;29.27;18.07;;;-2.70;99.90;;;;;;5096382;28;20166;-61
2024/01/11 09:19:00;;;;;;;31.63;17.60;;;-2.60;99.90;;;;;;5096445;28;20269;-62
2024/01/11 09:21:26;;;;;;;29.00;18.23;;;-2.60;99.90;;;;;;5096310;28;20182;-61
2024/01/11 09:23:52;;;;;;;29.40;18.20;;;-2.60;99.90;;;;;;5094687;28;20234;-61
2024/01/11 09:26:17;;;;;;;30.10;18.17;;;-2.40;99.90;;;;;;5095725;28;20193;-61
2024/01/11 09:28:43;;;;;;;29.20;19.13;;;-2.30;99.90;;;;;;5096174;28;20170;-62
2024/01/11 09:31:08;;;;;;;27.13;17.37;;;-2.20;99.90;;;;;;5096211;28;20177;-64
2024/01/11 09:33:34;;;;;;;26.63;17.13;;;-2.20;99.90;;;;;;5095804;28;20214;-62
2024/01/11 09:36:00;;;;;;;27.10;17.07;;;-2.20;99.90;;;;;;5096064;28;20239;-62
2024/01/11 09:38:26;;;;;;;28.70;17.63;;;-2.10;99.90;;;;;;5095966;28;20570;-62
2024/01/11 09:41:13;;;;;;;25.90;15.60;;;-2.10;99.90;;;;;;5077600;28;20178;-61
2024/01/11 09:43:43;;;;;;;25.43;16.70;;;-1.90;99.90;;;;;;5096004;28;20213;-62
2024/01/11 09:46:11;;;;;;;27.90;16.57;;;-1.90;99.90;;;;;;5095968;28;20675;-62
2024/01/11 09:48:39;;;;;;;28.40;17.43;;;-1.90;99.90;;;;;;5095990;28;20166;-62
2024/01/11 09:51:12;;;;;;;24.80;16.63;;;-1.80;99.90;;;;;;5095799;28;20261;-61
2024/01/11 09:53:39;;;;;;;27.57;17.67;;;-1.70;99.90;;;;;;5095887;28;20190;-62
2024/01/11 09:56:09;;;;;;;26.77;17.47;;;-1.60;99.90;;;;;;5095711;28;20213;-60
2024/01/11 09:58:38;;;;;;;26.80;17.57;;;-1.60;99.90;;;;;;5095752;28;20185;-62
2024/01/11 10:01:09;;;;;;;27.50;18.30;;;-1.60;99.90;;;;;;5095373;28;20202;-60
2024/01/11 10:03:35;;;;;;;28.57;17.20;;;-1.50;99.90;;;;;;5095594;28;20607;-61
2024/01/11 10:06:01;;;;;;;26.03;17.73;;;-1.60;99.90;;;;;;5095225;28;20208;-61
2024/01/11 10:08:29;;;;;;;28.50;18.47;;;-1.60;99.90;;;;;;5095484;28;20209;-61
2024/01/11 10:10:55;;;;;;;26.83;17.97;;;-1.60;99.90;;;;;;5095503;28;20166;-61
2024/01/11 10:13:30;;;;;;;28.67;18.50;;;-1.40;99.90;;;;;;5095326;28;20232;-61
2024/01/11 10:16:18;;;;;;;31.07;18.93;;;-1.30;99.90;;;;;;5094506;28;20650;-61
2024/01/11 10:18:44;;;;;;;29.63;19.63;;;-1.30;99.90;;;;;;5095349;28;20174;-61
2024/01/11 10:21:09;;;;;;;31.30;20.00;;;-1.20;99.90;;;;;;5095256;28;20178;-61
2024/01/11 10:23:39;;;;;;;30.10;19.13;;;-1.20;99.90;;;;;;5095121;28;20682;-62
2024/01/11 10:26:04;;;;;;;27.83;18.27;;;-1.10;99.90;;;;;;5095148;28;20219;-60
2024/01/11 10:28:30;;;;;;;28.93;18.27;;;-1.00;99.90;;;;;;5095165;28;20261;-62
2024/01/11 10:30:57;;;;;;;31.43;18.97;;;-1.00;99.90;;;;;;5095091;28;20594;-62
2024/01/11 10:33:22;;;;;;;27.53;16.77;;;-1.10;99.90;;;;;;5094884;28;20205;-62
2024/01/11 10:35:49;;;;;;;26.93;17.80;;;-1.00;99.90;;;;;;5095048;28;20176;-61
2024/01/11 10:38:16;;;;;;;28.63;17.90;;;-0.90;99.90;;;;;;5094961;28;20595;-61
2024/01/11 10:40:42;;;;;;;24.63;16.37;;;-0.90;99.90;;;;;;5094937;28;20190;-61
2024/01/11 10:43:13;;;;;;;25.70;17.60;;;-0.90;99.90;;;;;;5094821;28;20217;-61
2024/01/11 10:45:38;;;;;;;30.70;19.13;;;-0.80;99.90;;;;;;5094805;28;20220;-61
2024/01/11 10:48:12;;;;;;;26.27;17.77;;;-0.90;99.90;;;;;;5094779;28;20177;-60
2024/01/11 10:50:42;;;;;;;30.83;18.60;;;-0.90;99.90;;;;;;5094767;28;20541;-61
2024/01/11 10:53:08;;;;;;;25.87;17.90;;;-0.90;99.90;;;;;;5094585;28;20200;-61
2024/01/11 10:55:34;;;;;;;28.07;18.53;;;-0.80;99.90;;;;;;5094614;28;20515;-61
2024/01/11 10:58:02;;;;;;;28.70;19.33;;;-0.60;99.90;;;;;;5094591;28;20250;-61
2024/01/11 11:00:29;;;;;;;26.10;17.97;;;-0.60;99.90;;;;;;5094480;28;20185;-61
2024/01/11 11:02:56;;;;;;;26.30;18.27;;;-0.50;99.90;;;;;;5094376;28;20185;-61
2024/01/11 11:05:25;;;;;;;29.20;18.13;;;-0.50;99.90;;;;;;5094390;28;20185;-61
2024/01/11 11:07:51;;;;;;;28.40;18.13;;;-0.40;99.90;;;;;;5094419;28;20179;-61
2024/01/11 11:10:21;;;;;;;26.63;17.40;;;-0.30;99.90;;;;;;5094337;28;20175;-61
2024/01/11 11:12:48;;;;;;;30.73;19.13;;;-0.40;99.90;;;;;;5094255;28;20544;-61
2024/01/11 11:15:14;;;;;;;28.43;18.20;;;-0.40;99.90;;;;;;5094415;28;20688;-61
2024/01/11 11:17:43;;;;;;;26.73;17.97;;;-0.40;99.90;;;;;;5093915;28;20205;-61
2024/01/11 11:20:11;;;;;;;25.67;16.90;;;-0.30;99.90;;;;;;5094104;28;20303;-61
2024/01/11 11:22:39;;;;;;;27.13;17.73;;;-0.20;99.90;;;;;;5093997;28;20179;-61
2024/01/11 11:25:23;;;;;;;35.20;24.43;;;-0.20;99.90;;;;;;5094223;28;20275;-60
2024/01/11 11:27:49;;;;;;;60.07;36.43;;;-0.20;99.90;;;;;;5094011;28;20169;-61
2024/01/11 11:30:18;;;;;;;35.00;23.00;;;-0.20;99.90;;;;;;5094025;28;20524;-61
2024/01/11 11:32:46;;;;;;;34.43;22.57;;;0.00;99.90;;;;;;5093902;28;20307;-60
2024/01/11 11:35:12;;;;;;;35.30;22.27;;;-0.10;99.90;;;;;;5093935;28;20278;-61
2024/01/11 11:37:39;;;;;;;33.57;21.73;;;0.00;99.90;;;;;;5094214;28;20288;-61
2024/01/11 11:40:14;;;;;;;32.83;21.27;;;0.00;99.90;;;;;;5093848;28;20177;-60
2024/01/11 11:42:40;;;;;;;32.07;20.30;;;0.10;99.90;;;;;;5093857;28;20170;-61
2024/01/11 11:45:10;;;;;;;28.87;19.43;;;0.20;99.90;;;;;;5093816;28;20209;-60
2024/01/11 11:47:39;;;;;;;29.73;20.27;;;0.30;99.90;;;;;;5093688;28;20220;-60
2024/01/11 11:50:06;;;;;;;31.43;20.60;;;0.20;99.90;;;;;;5093705;28;20290;-60
2024/01/11 11:52:39;;;;;;;28.73;19.07;;;0.30;99.90;;;;;;5093655;28;20255;-61
2024/01/11 11:55:08;;;;;;;29.27;18.83;;;0.30;99.90;;;;;;5093287;28;20594;-60
2024/01/11 11:57:35;;;;;;;32.97;19.73;;;0.30;99.90;;;;;;5093638;28;20227;-60
2024/01/11 12:00:05;;;;;;;28.33;20.10;;;0.30;99.90;;;;;;5093648;28;20171;-61
2024/01/11 12:02:32;;;;;;;28.07;18.73;;;0.30;99.90;;;;;;5093649;28;20207;-60
2024/01/11 12:04:58;;;;;;;26.03;17.23;;;0.30;99.90;;;;;;5093597;28;20204;-61
2024/01/11 12:07:24;;;;;;;26.97;17.70;;;0.50;99.90;;;;;;5093492;28;20185;-60
2024/01/11 12:09:52;;;;;;;25.33;17.57;;;0.50;99.90;;;;;;5093570;28;20533;-60
2024/01/11 12:12:20;;;;;;;26.80;18.17;;;0.60;99.90;;;;;;5093366;28;20243;-60
2024/01/11 12:14:46;;;;;;;28.97;18.87;;;0.70;99.90;;;;;;5093484;28;20174;-61
2024/01/11 12:17:12;;;;;;;28.83;19.23;;;0.70;99.90;;;;;;5093626;28;20569;-59
2024/01/11 12:19:38;;;;;;;28.47;19.97;;;0.70;99.90;;;;;;5093407;28;20177;-60
2024/01/11 12:22:04;;;;;;;31.23;18.47;;;0.60;99.90;;;;;;5093435;28;20174;-60
2024/01/11 12:24:30;;;;;;;30.27;19.17;;;0.70;99.90;;;;;;5093188;28;20229;-60